createdAt,value
2018-11-07T00:00:18.992Z,74.79
2018-11-07T00:02:48.329Z,73.93
2018-11-07T00:05:18.815Z,74.46
2018-11-07T00:07:48.183Z,74.74
2018-11-07T00:10:17.442Z,74.75
2018-11-07T00:12:46.751Z,74.78
2018-11-07T00:15:16.727Z,74.87
2018-11-07T00:17:46.024Z,73.93
2018-11-07T00:20:15.298Z,75.08
2018-11-07T00:22:44.666Z,74.87
2018-11-07T00:25:14.006Z,74.50
2018-11-07T00:27:43.308Z,75.16
2018-11-07T00:30:12.813Z,75.92
2018-11-07T00:32:42.208Z,75.68
2018-11-07T00:35:12.245Z,76.08
2018-11-07T00:37:42.631Z,75.99
2018-11-07T00:40:12.336Z,75.57
2018-11-07T00:42:41.695Z,75.74
2018-11-07T00:45:12.744Z,76.16
2018-11-07T00:47:42.271Z,76.33
2018-11-07T00:50:17.010Z,75.94
2018-11-07T00:52:47.876Z,75.58
2018-11-07T00:55:17.866Z,75.47
2018-11-07T00:57:47.159Z,75.37
2018-11-07T01:00:18.620Z,75.49
2018-11-07T01:02:48.926Z,75.63
2018-11-07T01:05:18.301Z,74.91
2018-11-07T01:07:48.208Z,75.75
2018-11-07T01:10:20.480Z,75.95
2018-11-07T01:12:49.814Z,76.21
2018-11-07T01:15:19.185Z,75.89
2018-11-07T01:17:48.517Z,76.67
2018-11-07T01:20:17.889Z,76.78
2018-11-07T01:22:47.226Z,77.19
2018-11-07T01:25:16.698Z,77.47
2018-11-07T01:27:46.022Z,77.35
2018-11-07T01:30:15.326Z,76.97
2018-11-07T01:32:44.843Z,77.16
2018-11-07T01:35:14.111Z,76.79
2018-11-07T01:37:43.656Z,76.89
2018-11-07T01:40:14.314Z,77.56
2018-11-07T01:42:44.486Z,77.42
2018-11-07T01:45:14.046Z,76.89
2018-11-07T01:47:43.521Z,76.75
2018-11-07T01:50:13.855Z,77.25
2018-11-07T01:52:43.399Z,78.01
2018-11-07T01:55:13.913Z,77.66
2018-11-07T01:57:43.220Z,78.50
2018-11-07T02:00:13.108Z,77.90
2018-11-07T02:02:43.685Z,77.90
2018-11-07T02:05:13.477Z,77.33
2018-11-07T02:07:43.327Z,78.19
2018-11-07T02:10:12.971Z,78.65
2018-11-07T02:12:42.520Z,79.18
2018-11-07T02:15:12.185Z,79.50
2018-11-07T02:17:41.558Z,79.40
2018-11-07T02:20:11.951Z,76.41
2018-11-07T02:22:41.583Z,78.46
2018-11-07T02:25:11.103Z,76.71
2018-11-07T02:27:40.879Z,76.60
2018-11-07T02:30:14.513Z,76.25
2018-11-07T02:32:44.189Z,76.41
2018-11-07T02:35:13.518Z,76.12
2018-11-07T02:37:43.012Z,75.46
2018-11-07T02:40:12.310Z,75.77
2018-11-07T02:42:41.616Z,75.55
2018-11-07T02:45:10.923Z,76.22
2018-11-07T02:47:40.298Z,76.63
2018-11-07T02:50:10.391Z,76.76
2018-11-07T02:52:41.666Z,77.01
2018-11-07T02:55:10.954Z,77.20
2018-11-07T02:57:40.238Z,77.39
2018-11-07T03:00:12.813Z,78.00
2018-11-07T03:02:42.184Z,78.14
2018-11-07T03:05:11.578Z,78.24
2018-11-07T03:07:41.294Z,78.69
2018-11-07T03:10:12.861Z,79.20
2018-11-07T03:12:42.792Z,79.31
2018-11-07T03:15:12.389Z,79.39
2018-11-07T03:17:41.848Z,79.05
2018-11-07T03:20:12.724Z,78.55
2018-11-07T03:22:42.236Z,78.86
2018-11-07T03:25:11.530Z,78.81
2018-11-07T03:27:40.891Z,79.45
2018-11-07T03:30:10.499Z,80.63
2018-11-07T03:32:39.921Z,81.22
2018-11-07T03:35:14.548Z,82.35
2018-11-07T03:37:43.842Z,83.30
2018-11-07T03:40:13.242Z,82.97
2018-11-07T03:42:42.574Z,82.52
2018-11-07T03:45:11.862Z,82.64
2018-11-07T03:47:41.228Z,83.51
2018-11-07T03:50:10.569Z,83.01
2018-11-07T03:52:40.034Z,83.07
2018-11-07T03:55:09.400Z,83.10
2018-11-07T03:57:38.873Z,82.87
2018-11-07T04:00:09.678Z,82.69
2018-11-07T04:02:39.668Z,81.91
2018-11-07T04:05:10.531Z,81.75
2018-11-07T04:07:40.453Z,80.31
2018-11-07T04:10:09.913Z,80.75
2018-11-07T04:12:39.179Z,81.79
2018-11-07T04:15:09.408Z,80.95
2018-11-07T04:17:38.744Z,80.49
2018-11-07T04:20:08.922Z,80.48
2018-11-07T04:22:38.356Z,81.52
2018-11-07T04:25:08.254Z,82.31
2018-11-07T04:27:37.522Z,82.13
2018-11-07T04:30:09.772Z,82.47
2018-11-07T04:32:39.007Z,82.65
2018-11-07T04:35:09.739Z,82.39
2018-11-07T04:37:40.130Z,83.00
2018-11-07T04:40:10.900Z,82.83
2018-11-07T04:42:40.370Z,83.95
2018-11-07T04:45:09.709Z,84.71
2018-11-07T04:47:38.989Z,85.17
2018-11-07T04:50:10.135Z,84.70
2018-11-07T04:52:39.770Z,85.28
2018-11-07T04:55:09.063Z,87.35
2018-11-07T04:57:38.534Z,86.50
2018-11-07T05:00:10.465Z,86.10
2018-11-07T05:02:39.813Z,85.75
2018-11-07T05:05:09.192Z,86.03
2018-11-07T05:07:38.489Z,86.39
2018-11-07T05:10:09.494Z,85.52
2018-11-07T05:12:39.006Z,85.46
2018-11-07T05:15:08.906Z,85.69
2018-11-07T05:17:38.506Z,84.82
2018-11-07T05:20:09.639Z,85.61
2018-11-07T05:22:39.034Z,85.09
2018-11-07T05:25:09.331Z,85.09
2018-11-07T05:27:38.631Z,85.37
2018-11-07T05:30:09.273Z,86.13
2018-11-07T05:32:38.668Z,86.75
2018-11-07T05:35:08.246Z,87.18
2018-11-07T05:37:37.595Z,87.07
2018-11-07T05:40:07.995Z,87.37
2018-11-07T05:42:37.302Z,87.12
2018-11-07T05:45:06.826Z,86.91
2018-11-07T05:47:36.198Z,85.75
2018-11-07T05:50:06.630Z,85.60
2018-11-07T05:52:36.080Z,85.12
2018-11-07T05:55:06.114Z,84.88
2018-11-07T05:57:35.418Z,85.20
2018-11-07T06:00:05.374Z,85.46
2018-11-07T06:02:34.949Z,85.07
2018-11-07T06:05:04.256Z,84.89
2018-11-07T06:07:33.482Z,85.72
2018-11-07T06:10:02.778Z,85.99
2018-11-07T06:12:32.103Z,86.06
2018-11-07T06:15:01.398Z,86.43
2018-11-07T06:17:30.683Z,85.73
2018-11-07T06:19:59.995Z,86.51
2018-11-07T06:22:29.256Z,86.60
2018-11-07T06:24:58.839Z,87.62
2018-11-07T06:27:28.084Z,87.29
2018-11-07T06:29:57.436Z,87.46
2018-11-07T06:32:26.737Z,86.62
2018-11-07T06:34:56.014Z,86.79
2018-11-07T06:37:25.351Z,86.89
2018-11-07T06:39:54.703Z,87.83
2018-11-07T06:42:24.006Z,89.57
2018-11-07T06:44:53.393Z,87.81
2018-11-07T06:47:22.936Z,87.04
2018-11-07T06:49:52.282Z,86.45
2018-11-07T06:52:21.593Z,85.89
2018-11-07T06:54:50.914Z,86.50
2018-11-07T06:57:20.242Z,85.81
2018-11-07T06:59:49.580Z,86.33
2018-11-07T07:02:18.923Z,86.25
2018-11-07T07:04:48.260Z,85.99
2018-11-07T07:07:17.544Z,85.23
2018-11-07T07:09:47.294Z,85.50
2018-11-07T07:12:16.691Z,85.18
2018-11-07T07:14:45.992Z,86.39
2018-11-07T07:17:15.360Z,86.22
2018-11-07T07:19:44.733Z,85.62
2018-11-07T07:22:14.029Z,85.82
2018-11-07T07:24:43.415Z,85.49
2018-11-07T07:27:12.747Z,85.33
2018-11-07T07:29:42.089Z,84.62
2018-11-07T07:32:11.499Z,83.73
2018-11-07T07:34:40.819Z,82.58
2018-11-07T07:37:10.130Z,81.06
2018-11-07T07:39:39.469Z,80.32
2018-11-07T07:42:08.739Z,79.63
2018-11-07T07:44:38.026Z,77.50
2018-11-07T07:47:07.439Z,75.59
2018-11-07T07:49:36.732Z,74.70
2018-11-07T07:52:06.286Z,73.87
2018-11-07T07:54:35.791Z,72.30
2018-11-07T07:57:05.172Z,69.61
2018-11-07T07:59:34.482Z,65.90
2018-11-07T08:02:03.922Z,63.62
2018-11-07T08:04:33.235Z,61.69
2018-11-07T08:07:02.655Z,59.98
2018-11-07T08:09:31.971Z,57.58
2018-11-07T08:12:01.293Z,53.20
2018-11-07T08:14:30.643Z,50.24
2018-11-07T08:17:00.171Z,46.55
2018-11-07T08:19:29.464Z,45.81
2018-11-07T08:21:59.018Z,47.87
2018-11-07T08:24:28.379Z,50.53
2018-11-07T08:26:57.706Z,51.56
2018-11-07T08:29:27.000Z,50.79
2018-11-07T08:31:56.312Z,46.92
2018-11-07T08:34:25.602Z,46.97
2018-11-07T08:36:55.013Z,45.21
2018-11-07T08:39:24.552Z,42.77
2018-11-07T08:41:53.947Z,40.46
2018-11-07T08:44:23.280Z,40.36
2018-11-07T08:46:52.629Z,39.22
2018-11-07T08:49:21.955Z,38.34
2018-11-07T08:51:51.293Z,37.41
2018-11-07T08:54:20.656Z,35.41
2018-11-07T08:56:49.988Z,34.02
2018-11-07T08:59:19.292Z,34.05
2018-11-07T09:01:48.693Z,32.72
2018-11-07T09:04:17.998Z,32.00
2018-11-07T09:06:47.321Z,32.53
2018-11-07T09:09:16.660Z,34.18
2018-11-07T09:11:46.004Z,32.92
2018-11-07T09:14:15.350Z,32.82
2018-11-07T09:16:44.708Z,32.72
2018-11-07T09:19:14.039Z,31.73
2018-11-07T09:21:43.434Z,33.68
2018-11-07T09:24:12.975Z,32.73
2018-11-07T09:26:43.974Z,31.75
2018-11-07T09:29:13.344Z,32.26
2018-11-07T09:31:42.763Z,30.96
2018-11-07T09:34:12.115Z,29.71
2018-11-07T09:36:41.416Z,29.99
2018-11-07T09:39:11.603Z,29.87
2018-11-07T09:41:40.958Z,27.68
2018-11-07T09:44:10.275Z,27.93
2018-11-07T09:46:39.869Z,27.20
2018-11-07T09:49:09.214Z,25.40
2018-11-07T09:51:38.543Z,26.24
2018-11-07T09:54:08.148Z,27.60
2018-11-07T09:56:37.522Z,28.06
2018-11-07T09:59:06.871Z,29.28
2018-11-07T10:01:36.291Z,32.31
2018-11-07T10:04:06.784Z,35.37
2018-11-07T10:06:36.140Z,33.71
2018-11-07T10:09:07.948Z,33.18
2018-11-07T10:11:37.256Z,31.18
2018-11-07T10:14:06.791Z,30.57
2018-11-07T10:16:36.192Z,28.46
2018-11-07T10:19:05.716Z,28.16
2018-11-07T10:21:35.071Z,27.43
2018-11-07T10:24:04.467Z,31.26
2018-11-07T10:26:33.841Z,34.38
2018-11-07T10:29:03.445Z,39.06
2018-11-07T10:31:32.973Z,41.69
2018-11-07T10:34:02.329Z,38.30
2018-11-07T10:36:31.743Z,34.92
2018-11-07T10:39:01.210Z,33.10
2018-11-07T10:41:30.590Z,31.50
2018-11-07T10:43:59.975Z,29.08
2018-11-07T10:46:29.222Z,32.29
2018-11-07T10:48:58.602Z,32.83
2018-11-07T10:51:27.901Z,34.64
2018-11-07T10:53:57.328Z,33.73
2018-11-07T10:56:26.638Z,31.32
2018-11-07T10:58:56.022Z,29.61
2018-11-07T11:01:30.644Z,27.83
2018-11-07T11:03:59.976Z,28.09
2018-11-07T11:06:29.258Z,28.51
2018-11-07T11:08:58.927Z,25.96
2018-11-07T11:11:28.360Z,26.85
2018-11-07T11:13:57.667Z,26.03
2018-11-07T11:16:27.458Z,27.28
2018-11-07T11:18:56.812Z,28.99
2018-11-07T11:21:26.195Z,28.10
2018-11-07T11:23:55.621Z,29.29
2018-11-07T11:26:24.985Z,27.28
2018-11-07T11:28:54.266Z,27.37
2018-11-07T11:31:27.494Z,25.97
2018-11-07T11:33:56.985Z,27.41
2018-11-07T11:36:26.233Z,26.20
2018-11-07T11:38:55.520Z,25.01
2018-11-07T11:41:24.844Z,22.91
2018-11-07T11:43:54.172Z,23.61
2018-11-07T11:46:23.498Z,22.71
2018-11-07T11:48:52.898Z,22.70
2018-11-07T11:51:22.553Z,25.08
2018-11-07T11:53:51.835Z,24.97
2018-11-07T11:56:21.153Z,24.33
2018-11-07T11:58:50.529Z,24.04
2018-11-07T12:01:19.819Z,24.22
2018-11-07T12:03:49.087Z,22.07
2018-11-07T12:06:19.430Z,21.89
2018-11-07T12:08:48.816Z,22.93
2018-11-07T12:11:18.160Z,21.17
2018-11-07T12:13:47.554Z,22.83
2018-11-07T12:16:16.876Z,22.42
2018-11-07T12:18:46.216Z,22.63
2018-11-07T12:21:15.615Z,22.37
2018-11-07T12:23:44.905Z,22.26
2018-11-07T12:26:14.210Z,22.42
2018-11-07T12:28:43.579Z,22.64
2018-11-07T12:31:12.887Z,22.97
2018-11-07T12:33:42.191Z,22.76
2018-11-07T12:36:11.712Z,24.94
2018-11-07T12:38:41.067Z,24.76
2018-11-07T12:41:10.420Z,23.69
2018-11-07T12:43:39.775Z,22.02
2018-11-07T12:46:09.164Z,21.78
2018-11-07T12:48:38.538Z,21.37
2018-11-07T12:51:07.901Z,22.28
2018-11-07T12:53:37.268Z,23.57
2018-11-07T12:56:07.051Z,23.06
2018-11-07T12:58:36.672Z,21.81
2018-11-07T13:01:06.241Z,21.89
2018-11-07T13:03:35.563Z,22.78
2018-11-07T13:06:04.933Z,23.42
2018-11-07T13:08:34.361Z,23.16
2018-11-07T13:11:03.659Z,22.58
2018-11-07T13:13:33.029Z,22.59
2018-11-07T13:16:02.382Z,24.18
2018-11-07T13:18:31.772Z,24.91
2018-11-07T13:21:01.272Z,22.71
2018-11-07T13:23:30.665Z,22.08
2018-11-07T13:25:59.975Z,22.56
2018-11-07T13:28:29.391Z,23.29
2018-11-07T13:30:58.711Z,24.22
2018-11-07T13:33:27.995Z,24.90
2018-11-07T13:35:57.411Z,24.95
2018-11-07T13:38:27.006Z,24.00
2018-11-07T13:40:56.118Z,25.14
2018-11-07T13:43:25.621Z,24.54
2018-11-07T13:45:55.083Z,26.12
2018-11-07T13:48:24.374Z,24.52
2018-11-07T13:50:53.735Z,25.45
2018-11-07T13:53:23.134Z,25.83
2018-11-07T13:55:52.510Z,25.68
2018-11-07T13:58:21.911Z,25.19
2018-11-07T14:00:51.715Z,26.21
2018-11-07T14:03:21.056Z,27.03
2018-11-07T14:05:51.029Z,29.16
2018-11-07T14:08:20.165Z,29.20
2018-11-07T14:10:49.568Z,28.60
2018-11-07T14:13:18.994Z,28.75
2018-11-07T14:15:50.424Z,29.63
2018-11-07T14:18:19.842Z,29.93
2018-11-07T14:20:49.192Z,29.31
2018-11-07T14:23:18.517Z,28.68
2018-11-07T14:25:48.131Z,29.63
2018-11-07T14:28:17.675Z,30.35
2018-11-07T14:30:47.038Z,30.72
2018-11-07T14:33:16.393Z,30.42
2018-11-07T14:35:48.340Z,31.29
2018-11-07T14:38:17.761Z,32.19
2018-11-07T14:40:49.072Z,34.20
2018-11-07T14:43:18.824Z,32.09
2018-11-07T14:45:48.119Z,34.19
2018-11-07T14:48:17.506Z,32.96
2018-11-07T14:50:46.917Z,31.74
2018-11-07T14:53:16.365Z,33.19
2018-11-07T14:55:45.709Z,34.66
2018-11-07T14:58:15.046Z,37.66
2018-11-07T15:00:44.499Z,39.52
2018-11-07T15:03:14.948Z,40.39
2018-11-07T15:05:45.493Z,40.10
2018-11-07T15:08:14.863Z,39.94
2018-11-07T15:10:44.189Z,42.01
2018-11-07T15:13:13.607Z,43.09
2018-11-07T15:15:43.151Z,44.76
2018-11-07T15:18:13.390Z,47.23
2018-11-07T15:20:42.792Z,47.93
2018-11-07T15:23:12.187Z,49.34
2018-11-07T15:25:41.594Z,50.09
2018-11-07T15:28:11.020Z,51.28
2018-11-07T15:30:40.482Z,52.91
2018-11-07T15:33:09.796Z,53.68
2018-11-07T15:35:39.370Z,53.49
2018-11-07T15:38:09.444Z,54.17
2018-11-07T15:40:39.246Z,54.67
2018-11-07T15:43:08.625Z,55.89
2018-11-07T15:45:38.020Z,55.81
2018-11-07T15:48:07.338Z,56.23
2018-11-07T15:50:42.267Z,57.02
2018-11-07T15:53:11.653Z,57.49
2018-11-07T15:55:41.104Z,58.29
2018-11-07T15:58:10.480Z,58.65
2018-11-07T16:00:39.951Z,59.88
2018-11-07T16:03:09.312Z,59.72
2018-11-07T16:05:38.803Z,60.73
2018-11-07T16:08:14.833Z,60.78
2018-11-07T16:10:44.550Z,61.05
2018-11-07T16:13:13.953Z,61.45
2018-11-07T16:15:43.367Z,61.81
2018-11-07T16:18:12.796Z,61.27
2018-11-07T16:20:42.235Z,61.73
2018-11-07T16:23:11.651Z,61.24
2018-11-07T16:25:41.144Z,61.94
2018-11-07T16:28:10.495Z,62.21
2018-11-07T16:30:39.916Z,61.13
2018-11-07T16:33:09.555Z,61.70
2018-11-07T16:35:38.963Z,62.00
2018-11-07T16:38:08.300Z,61.17
2018-11-07T16:40:37.956Z,61.74
2018-11-07T16:43:07.306Z,61.59
2018-11-07T16:45:36.664Z,61.78
2018-11-07T16:48:06.386Z,61.98
2018-11-07T16:50:35.806Z,61.49
2018-11-07T16:53:05.337Z,61.21
2018-11-07T16:55:34.947Z,61.70
2018-11-07T16:58:04.272Z,61.53
2018-11-07T17:00:33.636Z,61.08
2018-11-07T17:03:03.057Z,61.48
2018-11-07T17:05:32.373Z,61.67
2018-11-07T17:08:01.743Z,62.17
2018-11-07T17:10:31.130Z,61.57
2018-11-07T17:13:00.567Z,62.08
2018-11-07T17:15:29.913Z,62.50
2018-11-07T17:17:59.657Z,62.90
2018-11-07T17:20:29.003Z,63.10
2018-11-07T17:22:58.398Z,63.59
2018-11-07T17:25:27.781Z,63.85
2018-11-07T17:27:57.116Z,63.39
2018-11-07T17:30:26.463Z,63.85
2018-11-07T17:32:55.839Z,63.97
2018-11-07T17:35:25.177Z,63.83
2018-11-07T17:37:54.484Z,64.89
2018-11-07T17:40:24.695Z,65.14
2018-11-07T17:42:54.359Z,65.33
2018-11-07T17:45:24.077Z,65.96
2018-11-07T17:47:53.649Z,66.54
2018-11-07T17:50:23.702Z,66.11
2018-11-07T17:52:53.410Z,66.44
2018-11-07T17:55:23.204Z,66.31
2018-11-07T17:57:52.563Z,67.02
2018-11-07T18:00:22.986Z,67.13
2018-11-07T18:02:52.503Z,67.37
2018-11-07T18:05:21.984Z,67.87
2018-11-07T18:07:51.350Z,67.79
2018-11-07T18:10:20.743Z,68.12
2018-11-07T18:12:50.140Z,68.57
2018-11-07T18:15:19.515Z,68.14
2018-11-07T18:17:49.007Z,67.58
2018-11-07T18:20:18.675Z,67.56
2018-11-07T18:22:48.279Z,67.59
2018-11-07T18:25:18.737Z,68.06
2018-11-07T18:27:48.102Z,68.30
2018-11-07T18:30:18.057Z,68.66
2018-11-07T18:32:47.987Z,68.53
2018-11-07T18:35:18.736Z,68.89
2018-11-07T18:37:48.343Z,69.05
2018-11-07T18:40:18.933Z,68.76
2018-11-07T18:42:48.399Z,69.36
2018-11-07T18:45:17.696Z,68.63
2018-11-07T18:47:47.766Z,68.44
2018-11-07T18:50:18.587Z,68.61
2018-11-07T18:52:48.044Z,68.85
2018-11-07T18:55:17.955Z,69.07
2018-11-07T18:57:47.698Z,69.67
2018-11-07T19:00:18.299Z,69.52
2018-11-07T19:02:48.310Z,69.20
2018-11-07T19:05:17.685Z,69.88
2018-11-07T19:07:47.070Z,69.17
2018-11-07T19:10:19.162Z,69.33
2018-11-07T19:12:48.842Z,70.39
2018-11-07T19:15:18.579Z,70.59
2018-11-07T19:17:48.963Z,71.88
2018-11-07T19:20:18.786Z,72.41
2018-11-07T19:22:48.611Z,72.44
2018-11-07T19:25:19.408Z,73.15
2018-11-07T19:27:50.369Z,72.57
2018-11-07T19:30:23.138Z,71.61
2018-11-07T19:32:53.299Z,71.46
2018-11-07T19:35:23.102Z,70.80
2018-11-07T19:37:52.668Z,71.75
2018-11-07T19:40:23.545Z,71.83
2018-11-07T19:42:52.956Z,72.12
2018-11-07T19:45:22.827Z,72.01
2018-11-07T19:47:52.438Z,71.46
2018-11-07T19:50:23.259Z,71.71
2018-11-07T19:52:53.047Z,72.31
2018-11-07T19:55:24.012Z,73.08
2018-11-07T19:57:57.999Z,72.15
2018-11-07T20:00:27.568Z,72.39
2018-11-07T20:02:56.937Z,72.25
2018-11-07T20:05:26.298Z,70.96
2018-11-07T20:07:55.887Z,71.52
2018-11-07T20:10:25.351Z,71.94
2018-11-07T20:12:54.729Z,72.66
2018-11-07T20:15:27.182Z,72.79
2018-11-07T20:17:56.704Z,72.88
2018-11-07T20:20:26.273Z,71.87
2018-11-07T20:22:55.754Z,72.13
2018-11-07T20:25:25.077Z,73.15
2018-11-07T20:27:54.679Z,73.75
2018-11-07T20:30:24.232Z,73.72
2018-11-07T20:32:53.610Z,75.02
2018-11-07T20:35:23.228Z,74.87
2018-11-07T20:37:52.762Z,74.49
2018-11-07T20:40:23.033Z,73.98
2018-11-07T20:42:57.096Z,74.43
2018-11-07T20:45:26.544Z,74.18
2018-11-07T20:47:55.905Z,74.04
2018-11-07T20:50:26.836Z,73.90
2018-11-07T20:52:56.339Z,73.83
2018-11-07T20:55:29.051Z,73.28
2018-11-07T20:57:58.413Z,73.66
2018-11-07T21:00:27.751Z,73.37
2018-11-07T21:02:57.602Z,73.92
2018-11-07T21:05:27.276Z,73.47
2018-11-07T21:07:57.218Z,73.37
2018-11-07T21:10:27.013Z,72.59
2018-11-07T21:12:56.527Z,72.83
2018-11-07T21:15:26.448Z,72.14
2018-11-07T21:17:55.840Z,72.44
2018-11-07T21:20:25.230Z,71.62
2018-11-07T21:22:54.610Z,71.66
2018-11-07T21:25:24.104Z,71.87
2018-11-07T21:27:53.621Z,72.32
2018-11-07T21:30:23.438Z,72.12
2018-11-07T21:32:52.954Z,72.00
2018-11-07T21:35:22.332Z,72.98
2018-11-07T21:37:52.482Z,72.56
2018-11-07T21:40:22.263Z,72.50
2018-11-07T21:42:52.102Z,73.51
2018-11-07T21:45:23.304Z,73.82
2018-11-07T21:47:54.094Z,74.71
2018-11-07T21:50:23.539Z,74.55
2018-11-07T21:52:52.999Z,74.30
2018-11-07T21:55:22.389Z,75.14
2018-11-07T21:57:51.745Z,75.11
2018-11-07T22:00:21.057Z,75.78
2018-11-07T22:02:50.522Z,75.83
2018-11-07T22:05:19.812Z,76.38
2018-11-07T22:07:49.179Z,76.43
2018-11-07T22:10:19.638Z,77.03
2018-11-07T22:12:49.005Z,76.77
2018-11-07T22:15:19.152Z,76.07
2018-11-07T22:17:48.522Z,75.31
2018-11-07T22:20:20.988Z,75.56
2018-11-07T22:22:50.362Z,75.66
2018-11-07T22:25:20.672Z,75.47
2018-11-07T22:27:51.563Z,75.67
2018-11-07T22:30:21.999Z,75.36
2018-11-07T22:32:51.450Z,75.23
2018-11-07T22:35:21.711Z,75.21
2018-11-07T22:37:52.679Z,74.92
2018-11-07T22:40:22.313Z,75.42
2018-11-07T22:42:51.601Z,75.67
2018-11-07T22:45:21.636Z,76.00
2018-11-07T22:47:50.955Z,76.32
2018-11-07T22:50:20.356Z,76.09
2018-11-07T22:52:49.852Z,76.73
2018-11-07T22:55:19.182Z,76.84
2018-11-07T22:57:48.517Z,75.09
2018-11-07T23:00:23.548Z,74.78
2018-11-07T23:02:55.634Z,75.62
2018-11-07T23:05:24.983Z,75.65
2018-11-07T23:07:54.326Z,74.85
2018-11-07T23:10:23.638Z,74.92
2018-11-07T23:12:53.216Z,74.96
2018-11-07T23:15:52.681Z,74.40
2018-11-07T23:18:22.015Z,74.96
2018-11-07T23:20:51.392Z,75.96
2018-11-07T23:23:23.120Z,76.85
2018-11-07T23:25:53.026Z,76.27
2018-11-07T23:28:22.376Z,76.15
2018-11-07T23:30:52.115Z,76.54
2018-11-07T23:33:21.412Z,76.24
2018-11-07T23:35:50.742Z,76.04
2018-11-07T23:38:20.133Z,76.23
2018-11-07T23:40:49.681Z,76.13
2018-11-07T23:43:18.984Z,76.82
2018-11-07T23:45:48.403Z,75.98
2018-11-07T23:48:17.683Z,75.25
2018-11-07T23:50:47.000Z,75.35
2018-11-07T23:53:16.626Z,74.69
2018-11-07T23:55:45.944Z,75.42
2018-11-07T23:58:15.270Z,75.65
